Time;durP1;ratioP1;P1;durP2;ratioP2;P2;SDS_P1;SDS_P2;PMS_P1;PMS_P2;Temp;Humidity;BMP_temperature;BMP_pressure;BME280_temperature;BME280_humidity;BME280_pressure;Samples;Min_cycle;Max_cycle;Signal;HPM_P1;HPM_P2
2022/06/25 00:01:36;;;;;;;;;0.50;0.50;;;;;;;;5009334;28;45478;-65
2022/06/25 00:04:01;;;;;;;;;0.00;0.00;;;;;;;;4977228;28;45543;-64
2022/06/25 00:06:26;;;;;;;;;2.50;1.00;;;;;;;;4976865;28;46451;-65
2022/06/25 00:08:52;;;;;;;;;1.75;0.25;;;;;;;;5003370;28;46054;-68
2022/06/25 00:14:04;;;;;;;;;2.50;1.00;;;;;;;;4976955;28;45388;-67
2022/06/25 00:16:29;;;;;;;;;2.75;2.00;;;;;;;;5008213;28;48060;-65
2022/06/25 00:18:54;;;;;;;;;1.00;1.00;;;;;;;;5008480;28;46350;-65
2022/06/25 00:21:19;;;;;;;;;1.00;1.00;;;;;;;;4977235;28;45481;-66
2022/06/25 00:23:44;;;;;;;;;1.00;1.00;;;;;;;;4974271;28;45488;-66
2022/06/25 00:26:10;;;;;;;;;1.75;1.75;;;;;;;;4974456;28;46557;-65
2022/06/25 00:28:35;;;;;;;;;2.50;1.00;;;;;;;;5004161;28;45501;-67
2022/06/25 00:31:00;;;;;;;;;1.75;1.00;;;;;;;;4976754;28;45445;-65
2022/06/25 00:33:26;;;;;;;;;1.00;1.00;;;;;;;;4977118;28;45491;-68
2022/06/25 00:35:51;;;;;;;;;0.25;0.25;;;;;;;;4976384;28;46045;-66
2022/06/25 00:38:16;;;;;;;;;1.00;0.00;;;;;;;;4976123;28;45914;-66
2022/06/25 00:40:41;;;;;;;;;2.50;1.25;;;;;;;;4976633;28;45568;-66
2022/06/25 00:43:06;;;;;;;;;1.00;1.00;;;;;;;;4975027;28;45610;-65
2022/06/25 00:45:32;;;;;;;;;0.50;0.50;;;;;;;;5008563;28;47819;-65
2022/06/25 00:47:57;;;;;;;;;1.75;1.00;;;;;;;;4971786;28;45402;-66
2022/06/25 00:50:22;;;;;;;;;1.00;1.00;;;;;;;;5007442;28;45438;-69
2022/06/25 00:52:52;;;;;;;;;1.25;1.00;;;;;;;;4969651;28;45468;-66
2022/06/25 00:55:20;;;;;;;;;1.25;0.75;;;;;;;;4972935;28;45842;-68
2022/06/25 00:57:46;;;;;;;;;1.75;1.00;;;;;;;;4973734;28;45371;-65
2022/06/25 01:00:17;;;;;;;;;1.75;1.75;;;;;;;;4973245;28;45560;-65
2022/06/25 01:02:43;;;;;;;;;2.00;1.00;;;;;;;;5004386;28;45960;-67
2022/06/25 01:05:10;;;;;;;;;1.50;1.50;;;;;;;;4968447;28;47499;-67
2022/06/25 01:07:36;;;;;;;;;0.50;0.50;;;;;;;;5004401;28;46650;-65
2022/06/25 01:10:02;;;;;;;;;1.00;1.00;;;;;;;;4971600;28;45466;-65
2022/06/25 01:12:27;;;;;;;;;0.75;0.50;;;;;;;;4968689;28;45462;-66
2022/06/25 01:15:02;;;;;;;;;2.00;2.00;;;;;;;;4971874;28;45473;-67
2022/06/25 01:17:29;;;;;;;;;0.75;0.00;;;;;;;;4972783;28;45616;-65
2022/06/25 01:19:54;;;;;;;;;1.25;1.00;;;;;;;;5004522;28;45326;-67
2022/06/25 01:22:19;;;;;;;;;0.75;0.50;;;;;;;;5004539;28;45424;-66
2022/06/25 01:24:44;;;;;;;;;0.75;0.75;;;;;;;;4973258;28;46391;-65
2022/06/25 01:27:14;;;;;;;;;1.25;1.25;;;;;;;;4968248;28;45517;-66
2022/06/25 01:29:39;;;;;;;;;1.00;0.75;;;;;;;;4968187;28;45506;-67
2022/06/25 01:32:04;;;;;;;;;3.50;1.00;;;;;;;;4972517;28;45457;-68
2022/06/25 01:34:30;;;;;;;;;2.25;1.75;;;;;;;;4972743;28;45659;-68
2022/06/25 01:36:55;;;;;;;;;2.00;2.00;;;;;;;;4988854;28;45434;-65
2022/06/25 01:39:20;;;;;;;;;2.00;2.00;;;;;;;;4972112;28;45736;-66
2022/06/25 01:41:45;;;;;;;;;2.50;2.50;;;;;;;;4972811;28;45862;-65
2022/06/25 01:44:10;;;;;;;;;2.00;1.00;;;;;;;;5004295;28;48350;-66
2022/06/25 01:46:36;;;;;;;;;2.25;2.25;;;;;;;;4970208;28;47567;-65
2022/06/25 01:49:01;;;;;;;;;1.75;1.75;;;;;;;;4971800;28;45363;-67
2022/06/25 01:51:26;;;;;;;;;1.50;1.50;;;;;;;;4973427;28;45469;-67
2022/06/25 01:53:51;;;;;;;;;2.00;1.75;;;;;;;;4972737;28;46682;-67
2022/06/25 01:56:17;;;;;;;;;2.00;2.00;;;;;;;;5004198;28;45464;-67
2022/06/25 01:58:42;;;;;;;;;1.50;1.00;;;;;;;;4965265;28;45741;-69
2022/06/25 02:01:07;;;;;;;;;1.00;1.00;;;;;;;;4970890;28;45888;-66
2022/06/25 02:03:32;;;;;;;;;1.50;1.50;;;;;;;;4973087;28;45495;-66
2022/06/25 02:05:58;;;;;;;;;0.50;0.50;;;;;;;;4995180;28;46121;-65
2022/06/25 02:08:25;;;;;;;;;2.50;1.50;;;;;;;;4965823;28;45943;-69
2022/06/25 02:10:50;;;;;;;;;0.75;0.75;;;;;;;;4970855;28;45486;-66
2022/06/25 02:13:16;;;;;;;;;1.25;1.25;;;;;;;;4956465;28;45439;-66
2022/06/25 02:15:41;;;;;;;;;2.50;1.50;;;;;;;;4958335;28;45459;-67
2022/06/25 02:18:08;;;;;;;;;2.00;2.00;;;;;;;;4992413;28;45560;-66
2022/06/25 02:20:33;;;;;;;;;1.50;1.50;;;;;;;;4959627;28;45553;-66
2022/06/25 02:22:58;;;;;;;;;4.00;2.00;;;;;;;;4961731;28;45761;-65
2022/06/25 02:25:23;;;;;;;;;3.50;1.75;;;;;;;;4969618;28;46054;-66
2022/06/25 02:27:49;;;;;;;;;2.00;1.75;;;;;;;;4972811;28;46681;-66
2022/06/25 02:30:14;;;;;;;;;3.25;1.50;;;;;;;;4961187;28;45338;-65
2022/06/25 02:32:39;;;;;;;;;1.75;1.75;;;;;;;;4960722;28;45564;-67
2022/06/25 02:35:05;;;;;;;;;2.00;1.00;;;;;;;;4960838;28;45345;-65
2022/06/25 02:37:30;;;;;;;;;2.00;2.00;;;;;;;;4958049;28;45383;-65
2022/06/25 02:39:55;;;;;;;;;2.00;2.00;;;;;;;;4972318;28;45359;-65
2022/06/25 02:42:20;;;;;;;;;2.25;2.00;;;;;;;;4972351;28;45343;-66
2022/06/25 02:44:46;;;;;;;;;3.25;2.75;;;;;;;;4971951;28;45597;-66
2022/06/25 02:47:11;;;;;;;;;3.75;2.50;;;;;;;;5003419;28;45561;-65
2022/06/25 02:49:36;;;;;;;;;3.00;2.00;;;;;;;;4972024;28;45412;-65
2022/06/25 02:52:03;;;;;;;;;2.00;0.50;;;;;;;;4974269;28;45497;-65
2022/06/25 02:54:28;;;;;;;;;1.50;1.50;;;;;;;;4975543;28;45476;-66
2022/06/25 02:59:38;;;;;;;;;1.25;1.25;;;;;;;;4970353;28;45376;-67
2022/06/25 03:02:03;;;;;;;;;2.50;1.50;;;;;;;;4975063;28;46200;-66
2022/06/25 03:04:29;;;;;;;;;2.25;2.25;;;;;;;;4975199;28;45411;-66
2022/06/25 03:06:54;;;;;;;;;2.00;2.00;;;;;;;;4974108;28;45590;-66
2022/06/25 03:09:19;;;;;;;;;2.00;2.00;;;;;;;;4975348;28;46182;-66
2022/06/25 03:11:45;;;;;;;;;1.00;1.00;;;;;;;;4975055;28;46087;-65
2022/06/25 03:14:10;;;;;;;;;1.50;1.50;;;;;;;;4975069;28;45853;-66
2022/06/25 03:16:36;;;;;;;;;1.00;1.00;;;;;;;;5006423;28;45559;-66
2022/06/25 03:19:02;;;;;;;;;1.00;1.00;;;;;;;;4974046;28;45653;-65
2022/06/25 03:21:27;;;;;;;;;0.75;0.75;;;;;;;;4994308;28;48469;-65
2022/06/25 03:23:52;;;;;;;;;0.75;0.75;;;;;;;;4971430;28;45464;-66
2022/06/25 03:26:17;;;;;;;;;1.00;1.00;;;;;;;;4975000;28;46059;-66
2022/06/25 03:28:43;;;;;;;;;0.75;0.75;;;;;;;;5006257;28;45548;-66
2022/06/25 03:31:08;;;;;;;;;0.25;0.00;;;;;;;;4974856;28;45427;-66
2022/06/25 03:33:33;;;;;;;;;0.25;0.25;;;;;;;;4970169;28;46242;-65
2022/06/25 03:35:59;;;;;;;;;0.25;0.25;;;;;;;;4972427;28;45783;-65
2022/06/25 03:38:24;;;;;;;;;0.75;0.25;;;;;;;;4974767;28;45618;-65
2022/06/25 03:40:49;;;;;;;;;0.00;0.00;;;;;;;;4974805;28;45501;-65
2022/06/25 03:43:15;;;;;;;;;2.00;0.25;;;;;;;;4973353;28;45594;-66
2022/06/25 03:45:40;;;;;;;;;2.00;1.00;;;;;;;;4975377;28;45485;-66
2022/06/25 03:48:05;;;;;;;;;0.00;0.00;;;;;;;;4974418;28;45413;-66
2022/06/25 03:50:31;;;;;;;;;0.00;0.00;;;;;;;;4974384;28;46119;-65
2022/06/25 03:52:56;;;;;;;;;0.00;0.00;;;;;;;;5006147;28;46074;-65
2022/06/25 03:55:21;;;;;;;;;1.25;0.00;;;;;;;;4973252;28;45352;-64
2022/06/25 03:57:46;;;;;;;;;0.00;0.00;;;;;;;;4970548;28;45431;-66
2022/06/25 04:00:12;;;;;;;;;0.00;0.00;;;;;;;;4973034;28;47691;-66
2022/06/25 04:02:37;;;;;;;;;0.25;0.25;;;;;;;;4973155;28;45546;-66
2022/06/25 04:05:03;;;;;;;;;1.00;0.00;;;;;;;;4974352;28;45466;-65
2022/06/25 04:07:28;;;;;;;;;3.00;0.00;;;;;;;;4972959;28;45336;-64
2022/06/25 04:09:53;;;;;;;;;1.00;1.00;;;;;;;;4973062;28;48536;-67
2022/06/25 04:12:19;;;;;;;;;0.00;0.00;;;;;;;;4994508;28;45427;-65
2022/06/25 04:14:44;;;;;;;;;0.00;0.00;;;;;;;;4970005;28;45501;-65
2022/06/25 04:17:10;;;;;;;;;0.00;0.00;;;;;;;;5005364;28;45497;-65
2022/06/25 04:19:39;;;;;;;;;0.00;0.00;;;;;;;;4971498;28;48275;-66
2022/06/25 04:22:05;;;;;;;;;0.00;0.00;;;;;;;;4973034;28;45871;-65
2022/06/25 04:24:30;;;;;;;;;0.00;0.00;;;;;;;;4974644;28;45432;-64
2022/06/25 04:26:55;;;;;;;;;0.50;0.00;;;;;;;;4974013;28;45376;-65
2022/06/25 04:29:22;;;;;;;;;0.25;0.25;;;;;;;;4972262;28;48609;-65
2022/06/25 04:31:47;;;;;;;;;0.25;0.25;;;;;;;;4972397;28;45458;-67
2022/06/25 04:34:13;;;;;;;;;0.00;0.00;;;;;;;;4960630;28;45878;-66
2022/06/25 04:36:38;;;;;;;;;0.00;0.00;;;;;;;;4974027;28;45404;-65
2022/06/25 04:39:03;;;;;;;;;0.75;0.00;;;;;;;;5004513;28;47857;-63
2022/06/25 04:41:28;;;;;;;;;0.00;0.00;;;;;;;;4971817;28;45418;-64
2022/06/25 04:43:53;;;;;;;;;0.00;0.00;;;;;;;;4979650;28;46143;-64
2022/06/25 04:46:19;;;;;;;;;0.00;0.00;;;;;;;;5004979;28;45767;-65
2022/06/25 04:48:44;;;;;;;;;0.00;0.00;;;;;;;;4973795;28;46188;-65
2022/06/25 04:51:09;;;;;;;;;0.00;0.00;;;;;;;;4964009;28;45746;-64
2022/06/25 04:53:54;;;;;;;;;0.00;0.00;;;;;;;;4978936;28;45866;-65
2022/06/25 04:56:19;;;;;;;;;0.00;0.00;;;;;;;;4969723;28;45461;-65
2022/06/25 04:58:45;;;;;;;;;1.00;0.00;;;;;;;;4961025;28;46022;-64
2022/06/25 05:01:10;;;;;;;;;0.50;0.50;;;;;;;;4957790;28;45360;-63
2022/06/25 05:03:35;;;;;;;;;0.00;0.00;;;;;;;;4960917;28;45364;-64
2022/06/25 05:06:01;;;;;;;;;1.25;0.00;;;;;;;;4962454;28;45390;-63
2022/06/25 05:08:27;;;;;;;;;0.00;0.00;;;;;;;;4993723;28;47685;-63
2022/06/25 05:10:52;;;;;;;;;1.00;0.00;;;;;;;;4993354;28;45928;-63
2022/06/25 05:13:17;;;;;;;;;0.00;0.00;;;;;;;;5005272;28;45422;-63
2022/06/25 05:15:42;;;;;;;;;0.00;0.00;;;;;;;;4959352;28;45452;-63
2022/06/25 05:18:08;;;;;;;;;0.00;0.00;;;;;;;;4962268;28;47122;-63
2022/06/25 05:20:38;;;;;;;;;0.50;0.50;;;;;;;;4962253;28;45763;-62
2022/06/25 05:23:03;;;;;;;;;0.00;0.00;;;;;;;;4961941;28;45500;-62
2022/06/25 05:25:29;;;;;;;;;0.00;0.00;;;;;;;;4973290;28;45355;-63
2022/06/25 05:27:55;;;;;;;;;0.75;0.00;;;;;;;;4973456;28;47629;-62
2022/06/25 05:30:20;;;;;;;;;0.25;0.25;;;;;;;;4973676;28;45502;-64
2022/06/25 05:32:45;;;;;;;;;0.00;0.00;;;;;;;;4973192;28;45582;-65
2022/06/25 05:35:10;;;;;;;;;0.00;0.00;;;;;;;;4972956;28;45414;-63
2022/06/25 05:37:35;;;;;;;;;1.75;0.75;;;;;;;;4973120;28;46297;-63
2022/06/25 05:40:01;;;;;;;;;0.00;0.00;;;;;;;;4971931;28;46254;-63
2022/06/25 05:42:26;;;;;;;;;0.00;0.00;;;;;;;;4968936;28;45862;-63
2022/06/25 05:44:51;;;;;;;;;0.75;0.75;;;;;;;;4971751;28;45514;-63
2022/06/25 05:47:16;;;;;;;;;0.00;0.00;;;;;;;;4969786;28;45683;-63
2022/06/25 05:49:41;;;;;;;;;0.75;0.75;;;;;;;;4991393;28;46545;-64
2022/06/25 05:52:07;;;;;;;;;1.25;0.00;;;;;;;;5004253;28;45450;-64
2022/06/25 05:54:32;;;;;;;;;1.00;1.00;;;;;;;;4960315;28;45415;-63
2022/06/25 05:56:57;;;;;;;;;1.25;0.50;;;;;;;;4961483;28;45940;-63
2022/06/25 05:59:22;;;;;;;;;0.25;0.25;;;;;;;;4961777;28;45551;-63
2022/06/25 06:01:47;;;;;;;;;0.00;0.00;;;;;;;;4960747;28;45415;-64
2022/06/25 06:04:13;;;;;;;;;0.00;0.00;;;;;;;;4957195;28;45441;-63
2022/06/25 06:06:38;;;;;;;;;1.00;1.00;;;;;;;;4959588;28;45605;-63
2022/06/25 06:09:03;;;;;;;;;0.25;0.25;;;;;;;;5002353;28;46242;-63
2022/06/25 06:11:29;;;;;;;;;1.00;1.00;;;;;;;;4968327;28;45406;-64
2022/06/25 06:13:54;;;;;;;;;0.25;0.25;;;;;;;;4961531;28;45405;-64
2022/06/25 06:16:19;;;;;;;;;1.00;1.00;;;;;;;;4987939;28;48611;-62
2022/06/25 06:18:44;;;;;;;;;0.50;0.50;;;;;;;;4971398;28;45661;-63
2022/06/25 06:21:10;;;;;;;;;2.00;1.00;;;;;;;;4962268;28;45324;-64
2022/06/25 06:23:35;;;;;;;;;1.00;1.00;;;;;;;;4992713;28;45461;-63
2022/06/25 06:26:01;;;;;;;;;0.00;0.00;;;;;;;;4992167;28;47371;-64
2022/06/25 06:28:26;;;;;;;;;2.50;1.00;;;;;;;;4972230;28;45486;-63
2022/06/25 06:30:51;;;;;;;;;0.75;0.75;;;;;;;;4973044;28;45508;-64
2022/06/25 06:33:17;;;;;;;;;1.00;1.00;;;;;;;;4971883;28;45589;-64
2022/06/25 06:35:42;;;;;;;;;1.50;1.50;;;;;;;;4997105;28;47801;-64
2022/06/25 06:38:07;;;;;;;;;1.00;0.00;;;;;;;;4962630;28;45609;-64
2022/06/25 06:40:33;;;;;;;;;1.25;0.75;;;;;;;;4972414;28;45434;-64
2022/06/25 06:42:58;;;;;;;;;0.50;0.50;;;;;;;;4972288;28;45388;-64
2022/06/25 06:45:23;;;;;;;;;0.75;0.00;;;;;;;;4991655;28;48745;-64
2022/06/25 06:47:48;;;;;;;;;1.00;1.00;;;;;;;;4967801;28;45524;-63
2022/06/25 06:50:13;;;;;;;;;0.50;0.50;;;;;;;;4971989;28;45634;-63
2022/06/25 06:52:39;;;;;;;;;2.00;1.00;;;;;;;;5003312;28;45540;-63
2022/06/25 06:55:04;;;;;;;;;0.00;0.00;;;;;;;;4971992;28;45941;-64
2022/06/25 06:57:30;;;;;;;;;0.25;0.25;;;;;;;;4972121;28;45490;-64
2022/06/25 06:59:55;;;;;;;;;0.00;0.00;;;;;;;;4970504;28;45468;-64
2022/06/25 07:02:20;;;;;;;;;0.00;0.00;;;;;;;;5000133;28;45457;-63
2022/06/25 07:04:46;;;;;;;;;0.00;0.00;;;;;;;;4959424;28;46780;-64
2022/06/25 07:07:11;;;;;;;;;1.00;0.00;;;;;;;;4971590;28;45534;-62
2022/06/25 07:09:37;;;;;;;;;0.00;0.00;;;;;;;;4972284;28;45386;-62
2022/06/25 07:12:02;;;;;;;;;0.50;0.50;;;;;;;;4971570;28;45433;-64
2022/06/25 07:14:27;;;;;;;;;0.00;0.00;;;;;;;;4986413;28;46166;-63
2022/06/25 07:16:52;;;;;;;;;0.00;0.00;;;;;;;;4971983;28;45497;-63
2022/06/25 07:19:18;;;;;;;;;0.00;0.00;;;;;;;;4971721;28;45649;-63
2022/06/25 07:21:43;;;;;;;;;1.00;1.00;;;;;;;;4971928;28;45377;-64
2022/06/25 07:24:08;;;;;;;;;1.00;1.00;;;;;;;;4969976;28;49036;-64
2022/06/25 07:26:33;;;;;;;;;1.00;1.00;;;;;;;;4971279;28;45805;-63
2022/06/25 07:28:59;;;;;;;;;0.00;0.00;;;;;;;;4971379;28;45687;-64
2022/06/25 07:31:24;;;;;;;;;0.00;0.00;;;;;;;;5002925;28;45419;-64
2022/06/25 07:33:49;;;;;;;;;1.00;1.00;;;;;;;;4971544;28;45714;-64
2022/06/25 07:36:15;;;;;;;;;3.50;0.50;;;;;;;;4992055;28;45409;-63
2022/06/25 07:38:40;;;;;;;;;0.00;0.00;;;;;;;;4994706;28;45438;-63
2022/06/25 07:41:05;;;;;;;;;0.50;0.50;;;;;;;;4964801;28;45889;-64
2022/06/25 07:43:31;;;;;;;;;0.00;0.00;;;;;;;;4974519;28;47379;-65
2022/06/25 07:45:57;;;;;;;;;2.00;0.00;;;;;;;;4974976;28;45900;-65
2022/06/25 07:48:22;;;;;;;;;1.50;0.75;;;;;;;;4994721;28;45640;-64
2022/06/25 07:53:31;;;;;;;;;0.50;0.50;;;;;;;;4974317;28;45480;-64
2022/06/25 07:55:56;;;;;;;;;0.00;0.00;;;;;;;;4974141;28;45460;-65
2022/06/25 07:58:23;;;;;;;;;1.00;1.00;;;;;;;;4974948;28;45912;-64
2022/06/25 08:00:48;;;;;;;;;0.00;0.00;;;;;;;;4991124;28;45378;-63
2022/06/25 08:03:13;;;;;;;;;0.00;0.00;;;;;;;;4973536;28;46312;-63
2022/06/25 08:05:38;;;;;;;;;1.75;0.00;;;;;;;;4974282;28;45394;-64
2022/06/25 08:08:04;;;;;;;;;1.75;0.00;;;;;;;;5005647;28;45532;-63
2022/06/25 08:10:29;;;;;;;;;0.00;0.00;;;;;;;;4974347;28;45499;-64
2022/06/25 08:12:54;;;;;;;;;1.00;1.00;;;;;;;;4973003;28;47519;-66
2022/06/25 08:15:20;;;;;;;;;0.00;0.00;;;;;;;;4974328;28;45359;-62
2022/06/25 08:17:45;;;;;;;;;0.00;0.00;;;;;;;;4998969;28;45471;-65
2022/06/25 08:20:11;;;;;;;;;0.00;0.00;;;;;;;;4964855;28;45552;-64
2022/06/25 08:22:36;;;;;;;;;0.00;0.00;;;;;;;;4974078;28;45404;-64
2022/06/25 08:25:01;;;;;;;;;0.25;0.00;;;;;;;;4973931;28;45376;-64
2022/06/25 08:27:27;;;;;;;;;0.00;0.00;;;;;;;;4973244;28;45382;-64
2022/06/25 08:29:52;;;;;;;;;0.00;0.00;;;;;;;;4974067;28;45400;-64
2022/06/25 08:32:17;;;;;;;;;0.50;0.50;;;;;;;;5004084;28;47717;-65
2022/06/25 08:34:42;;;;;;;;;1.50;0.00;;;;;;;;4971400;28;45517;-64
2022/06/25 08:37:07;;;;;;;;;1.25;0.75;;;;;;;;4972235;28;45368;-68
2022/06/25 08:39:33;;;;;;;;;0.00;0.00;;;;;;;;4972189;28;45464;-70
2022/06/25 08:42:03;;;;;;;;;1.00;1.00;;;;;;;;4970637;28;48337;-69
2022/06/25 08:44:29;;;;;;;;;0.50;0.50;;;;;;;;4966604;28;46211;-71
2022/06/25 08:46:55;;;;;;;;;1.50;0.75;;;;;;;;4961091;28;45496;-71
2022/06/25 08:49:20;;;;;;;;;1.00;1.00;;;;;;;;4971438;28;46030;-71
2022/06/25 08:51:47;;;;;;;;;1.50;1.50;;;;;;;;4972623;28;46070;-71
2022/06/25 08:54:13;;;;;;;;;1.00;0.00;;;;;;;;4971610;28;46031;-66
2022/06/25 08:56:38;;;;;;;;;0.25;0.25;;;;;;;;4968357;28;45672;-67
2022/06/25 08:59:04;;;;;;;;;0.00;0.00;;;;;;;;4964318;28;45384;-69
2022/06/25 09:01:29;;;;;;;;;1.25;1.25;;;;;;;;4957043;28;45670;-66
2022/06/25 09:03:55;;;;;;;;;0.00;0.00;;;;;;;;4987498;28;45543;-68
2022/06/25 09:06:21;;;;;;;;;1.00;1.00;;;;;;;;5003033;28;45660;-70
2022/06/25 09:09:05;;;;;;;;;2.00;1.00;;;;;;;;4971952;28;45894;-69
2022/06/25 09:11:31;;;;;;;;;2.00;1.00;;;;;;;;4971392;28;45577;-72
2022/06/25 09:14:18;;;;;;;;;2.25;2.25;;;;;;;;4971433;28;45427;-69
2022/06/25 09:16:48;;;;;;;;;2.25;2.00;;;;;;;;4990330;28;46165;-67
2022/06/25 09:19:26;;;;;;;;;1.75;0.75;;;;;;;;4971278;28;49665;-68
2022/06/25 09:21:51;;;;;;;;;0.75;0.75;;;;;;;;4968225;28;47251;-67
2022/06/25 09:24:16;;;;;;;;;1.75;1.75;;;;;;;;4971634;28;45537;-69
2022/06/25 09:26:51;;;;;;;;;2.00;2.00;;;;;;;;4971506;28;45411;-68
2022/06/25 09:29:17;;;;;;;;;1.75;1.75;;;;;;;;4963485;28;45570;-70
2022/06/25 09:31:42;;;;;;;;;1.50;1.50;;;;;;;;4965952;28;47569;-70
2022/06/25 09:34:08;;;;;;;;;2.25;2.00;;;;;;;;4974732;28;45348;-69
2022/06/25 09:36:33;;;;;;;;;1.00;1.00;;;;;;;;4974295;28;45506;-69
2022/06/25 09:38:59;;;;;;;;;0.75;0.75;;;;;;;;4969612;28;45483;-68
2022/06/25 09:41:24;;;;;;;;;0.50;0.25;;;;;;;;4973723;28;45418;-68
2022/06/25 09:43:51;;;;;;;;;1.00;1.00;;;;;;;;4973663;28;45450;-70
2022/06/25 09:46:17;;;;;;;;;1.75;1.00;;;;;;;;4974000;28;45383;-68
2022/06/25 09:48:42;;;;;;;;;4.75;4.25;;;;;;;;4971886;28;45543;-68
2022/06/25 09:51:07;;;;;;;;;2.00;2.00;;;;;;;;4973090;28;48570;-68
2022/06/25 09:53:34;;;;;;;;;2.75;2.75;;;;;;;;5002644;28;46157;-69
2022/06/25 09:55:59;;;;;;;;;3.00;1.50;;;;;;;;4974828;28;45537;-68
2022/06/25 09:58:25;;;;;;;;;1.00;1.00;;;;;;;;4974858;28;45443;-68
2022/06/25 10:00:50;;;;;;;;;2.00;2.00;;;;;;;;4965958;28;46105;-67
2022/06/25 10:03:16;;;;;;;;;2.00;2.00;;;;;;;;4973012;28;45879;-67
2022/06/25 10:05:41;;;;;;;;;1.50;1.50;;;;;;;;5002472;28;45598;-67
2022/06/25 10:08:09;;;;;;;;;2.00;2.00;;;;;;;;4971514;28;45344;-68
2022/06/25 10:10:43;;;;;;;;;0.75;0.75;;;;;;;;4983002;28;47721;-67
2022/06/25 10:13:08;;;;;;;;;2.50;1.00;;;;;;;;5002152;28;45736;-66
2022/06/25 10:15:34;;;;;;;;;2.00;2.00;;;;;;;;4974958;28;45535;-68
2022/06/25 10:18:02;;;;;;;;;2.00;2.00;;;;;;;;4970983;28;45533;-68
2022/06/25 10:20:27;;;;;;;;;1.75;1.75;;;;;;;;4971092;28;46982;-68
2022/06/25 10:22:53;;;;;;;;;3.25;1.25;;;;;;;;4970183;28;46263;-67
2022/06/25 10:25:25;;;;;;;;;5.00;4.50;;;;;;;;5001660;28;45316;-67
2022/06/25 10:28:01;;;;;;;;;3.00;3.00;;;;;;;;4973711;28;45387;-68
2022/06/25 10:30:53;;;;;;;;;1.50;1.50;;;;;;;;5005838;28;48814;-68
2022/06/25 10:33:21;;;;;;;;;4.25;2.00;;;;;;;;4968277;28;45509;-67
2022/06/25 10:35:47;;;;;;;;;1.00;1.00;;;;;;;;4970324;28;45368;-68
2022/06/25 10:38:17;;;;;;;;;2.50;1.50;;;;;;;;4974065;28;45484;-68
2022/06/25 10:40:45;;;;;;;;;1.75;1.75;;;;;;;;5005283;28;47597;-67
2022/06/25 10:43:30;;;;;;;;;3.00;2.00;;;;;;;;4970060;28;45621;-65
2022/06/25 10:45:55;;;;;;;;;2.00;0.00;;;;;;;;4973153;28;45880;-67
2022/06/25 10:48:22;;;;;;;;;2.00;2.00;;;;;;;;4970349;28;45500;-67
2022/06/25 10:50:48;;;;;;;;;3.00;3.00;;;;;;;;4972318;28;47687;-67
2022/06/25 10:53:13;;;;;;;;;0.25;0.25;;;;;;;;4971554;28;45744;-67
2022/06/25 10:55:39;;;;;;;;;2.00;2.00;;;;;;;;5004135;28;45556;-66
2022/06/25 10:58:17;;;;;;;;;2.00;0.00;;;;;;;;4971997;28;45511;-66
2022/06/25 11:00:46;;;;;;;;;3.00;1.50;;;;;;;;4970519;28;46032;-67
2022/06/25 11:03:12;;;;;;;;;2.00;2.00;;;;;;;;4972243;28;47577;-67
2022/06/25 11:05:41;;;;;;;;;3.50;2.25;;;;;;;;5001821;28;45431;-67
2022/06/25 11:08:07;;;;;;;;;1.25;1.25;;;;;;;;4972179;28;45817;-68
2022/06/25 11:10:36;;;;;;;;;2.00;1.00;;;;;;;;5004918;28;47560;-67
2022/06/25 11:13:01;;;;;;;;;0.75;0.75;;;;;;;;5003757;28;46116;-66
2022/06/25 11:15:38;;;;;;;;;1.00;1.00;;;;;;;;4976819;28;45438;-67
2022/06/25 11:18:06;;;;;;;;;2.00;1.50;;;;;;;;4973696;28;45650;-66
2022/06/25 11:20:31;;;;;;;;;3.00;2.00;;;;;;;;4972791;28;45889;-67
2022/06/25 11:22:56;;;;;;;;;2.00;2.00;;;;;;;;4976800;28;45690;-67
2022/06/25 11:30:49;;;;;;;;;2.00;2.00;;;;;;;;4973008;28;45467;-68
2022/06/25 11:33:15;;;;;;;;;2.50;1.50;;;;;;;;4971710;28;45388;-68
2022/06/25 11:35:41;;;;;;;;;2.00;2.00;;;;;;;;4973162;28;45354;-69
2022/06/25 11:38:16;;;;;;;;;4.75;4.75;;;;;;;;4975988;28;45249;-68
2022/06/25 11:40:41;;;;;;;;;2.00;2.00;;;;;;;;4967000;28;48450;-68
2022/06/25 11:43:07;;;;;;;;;2.00;2.00;;;;;;;;4975176;28;46165;-66
2022/06/25 11:45:32;;;;;;;;;2.25;1.50;;;;;;;;4976058;28;45384;-66
2022/06/25 11:47:58;;;;;;;;;1.00;1.00;;;;;;;;4972651;28;45559;-66
2022/06/25 11:50:23;;;;;;;;;1.00;1.00;;;;;;;;4973060;28;46366;-68
2022/06/25 11:52:48;;;;;;;;;3.00;3.00;;;;;;;;4968210;28;45424;-68
2022/06/25 11:55:14;;;;;;;;;2.00;2.00;;;;;;;;4972934;28;45599;-67
2022/06/25 11:57:45;;;;;;;;;2.00;1.75;;;;;;;;4965215;28;45368;-67
2022/06/25 12:00:13;;;;;;;;;2.00;2.00;;;;;;;;4972230;28;45426;-67
2022/06/25 12:02:39;;;;;;;;;1.00;1.00;;;;;;;;4971089;28;45320;-68
2022/06/25 12:05:05;;;;;;;;;1.50;1.25;;;;;;;;5001128;28;45511;-67
2022/06/25 12:07:31;;;;;;;;;2.75;2.75;;;;;;;;4973708;28;45932;-67
2022/06/25 12:10:01;;;;;;;;;1.75;1.75;;;;;;;;4964926;28;45942;-68
2022/06/25 12:12:27;;;;;;;;;2.00;2.00;;;;;;;;4972289;28;45461;-67
2022/06/25 12:14:53;;;;;;;;;1.50;1.50;;;;;;;;4969212;28;45482;-65
2022/06/25 12:17:19;;;;;;;;;2.50;2.00;;;;;;;;4969000;28;45614;-66
2022/06/25 12:19:51;;;;;;;;;2.25;2.25;;;;;;;;4975037;28;46078;-66
2022/06/25 12:22:19;;;;;;;;;1.00;0.75;;;;;;;;4995528;28;45541;-68
2022/06/25 12:24:45;;;;;;;;;2.00;2.00;;;;;;;;4964834;28;45435;-65
2022/06/25 12:27:11;;;;;;;;;2.50;2.50;;;;;;;;4964557;28;45475;-66
2022/06/25 12:29:36;;;;;;;;;2.00;2.00;;;;;;;;4985888;28;48904;-67
2022/06/25 12:32:01;;;;;;;;;2.75;2.75;;;;;;;;4975548;28;45441;-67
2022/06/25 12:34:27;;;;;;;;;4.00;2.75;;;;;;;;4995929;28;45378;-67
2022/06/25 12:36:53;;;;;;;;;2.75;2.00;;;;;;;;4973342;28;45690;-67
2022/06/25 12:39:28;;;;;;;;;2.50;1.75;;;;;;;;4964322;28;45803;-68
2022/06/25 12:41:54;;;;;;;;;1.75;1.75;;;;;;;;4972158;28;45470;-67
2022/06/25 12:44:19;;;;;;;;;0.33;0.33;;;;;;;;4971207;28;46294;-65
2022/06/25 12:47:05;;;;;;;;;1.00;1.00;;;;;;;;4969339;28;45478;-64
2022/06/25 12:49:44;;;;;;;;;1.00;0.75;;;;;;;;5006192;28;48587;-65
2022/06/25 12:52:10;;;;;;;;;1.00;1.00;;;;;;;;4965312;28;45474;-66
2022/06/25 12:54:39;;;;;;;;;1.00;1.00;;;;;;;;4969798;28;45485;-66
2022/06/25 12:57:05;;;;;;;;;1.50;1.50;;;;;;;;4975455;28;45474;-66
2022/06/25 12:59:31;;;;;;;;;1.00;1.00;;;;;;;;4971375;28;45489;-67
2022/06/25 13:01:56;;;;;;;;;1.00;1.00;;;;;;;;4975701;28;46339;-65
2022/06/25 13:04:21;;;;;;;;;1.00;1.00;;;;;;;;4963800;28;45423;-66
2022/06/25 13:06:46;;;;;;;;;2.75;1.00;;;;;;;;5004392;28;45366;-64
2022/06/25 13:09:11;;;;;;;;;1.50;0.75;;;;;;;;4971081;28;48861;-65
2022/06/25 13:11:38;;;;;;;;;0.00;0.00;;;;;;;;5003008;28;45625;-66
2022/06/25 13:14:03;;;;;;;;;0.75;0.75;;;;;;;;4973276;28;45474;-66
2022/06/25 13:16:29;;;;;;;;;1.75;1.75;;;;;;;;4978848;28;45389;-65
2022/06/25 13:18:54;;;;;;;;;1.75;1.00;;;;;;;;4974924;28;47820;-64
2022/06/25 13:21:19;;;;;;;;;1.00;1.00;;;;;;;;4970889;28;45501;-64
2022/06/25 13:23:45;;;;;;;;;0.50;0.50;;;;;;;;4970004;28;45556;-65
2022/06/25 13:26:10;;;;;;;;;1.75;1.00;;;;;;;;4970739;28;45484;-66
2022/06/25 13:28:35;;;;;;;;;1.00;1.00;;;;;;;;4964270;28;46073;-67
2022/06/25 13:31:00;;;;;;;;;3.00;1.50;;;;;;;;4975125;28;45469;-66
2022/06/25 13:33:25;;;;;;;;;1.50;1.50;;;;;;;;4973193;28;45735;-64
2022/06/25 13:35:51;;;;;;;;;3.00;0.50;;;;;;;;5001861;28;45497;-64
2022/06/25 13:38:16;;;;;;;;;1.50;1.50;;;;;;;;4972514;28;46294;-65
2022/06/25 13:40:41;;;;;;;;;3.25;1.00;;;;;;;;4996866;28;45387;-65
2022/06/25 13:43:07;;;;;;;;;1.00;1.00;;;;;;;;5002925;28;45734;-66
2022/06/25 13:45:32;;;;;;;;;1.00;1.00;;;;;;;;4994987;28;45354;-65
2022/06/25 13:47:57;;;;;;;;;1.00;1.00;;;;;;;;4971936;28;48027;-65
2022/06/25 13:50:23;;;;;;;;;2.50;2.00;;;;;;;;4971206;28;45332;-66
2022/06/25 13:52:48;;;;;;;;;1.00;0.25;;;;;;;;4977060;28;45462;-66
2022/06/25 13:55:14;;;;;;;;;1.00;1.00;;;;;;;;4971840;28;45900;-66
2022/06/25 13:57:39;;;;;;;;;1.25;0.50;;;;;;;;4975275;28;46334;-66
2022/06/25 14:00:05;;;;;;;;;0.50;0.50;;;;;;;;4970202;28;45813;-66
2022/06/25 14:02:30;;;;;;;;;2.00;1.00;;;;;;;;4970349;28;45430;-65
2022/06/25 14:04:56;;;;;;;;;0.50;0.50;;;;;;;;4966858;28;45386;-67
2022/06/25 14:07:21;;;;;;;;;1.00;1.00;;;;;;;;4973671;28;45577;-67
2022/06/25 14:09:47;;;;;;;;;1.50;1.50;;;;;;;;4994955;28;45855;-65
2022/06/25 14:12:12;;;;;;;;;1.00;1.00;;;;;;;;4970259;28;45297;-66
2022/06/25 14:14:37;;;;;;;;;1.00;0.75;;;;;;;;4969382;28;45384;-66
2022/06/25 14:17:03;;;;;;;;;2.50;1.00;;;;;;;;4998907;28;47813;-66
2022/06/25 14:19:28;;;;;;;;;2.00;2.00;;;;;;;;4968449;28;46263;-67
2022/06/25 14:21:54;;;;;;;;;1.00;1.00;;;;;;;;4996059;28;45454;-65
2022/06/25 14:25:20;;;;;;;;;1.00;1.00;;;;;;;;4971704;28;45323;-65
2022/06/25 14:27:05;;;;;;;;;2.00;1.25;;;;;;;;4965303;28;45814;-65
2022/06/25 14:29:31;;;;;;;;;1.00;1.00;;;;;;;;4967536;28;45553;-67
2022/06/25 14:31:56;;;;;;;;;3.50;1.00;;;;;;;;4974337;28;45553;-66
2022/06/25 14:34:22;;;;;;;;;2.00;2.00;;;;;;;;4962135;28;45392;-67
2022/06/25 14:42:22;;;;;;;;;0.00;0.00;;;;;;;;4970254;28;45524;-65
2022/06/25 14:44:50;;;;;;;;;3.00;1.50;;;;;;;;4968741;28;45760;-66
2022/06/25 14:47:16;;;;;;;;;3.00;2.00;;;;;;;;4971130;28;45758;-66
2022/06/25 14:49:41;;;;;;;;;1.25;0.25;;;;;;;;4972259;28;48336;-67
2022/06/25 14:52:07;;;;;;;;;1.00;1.00;;;;;;;;4994049;28;45426;-66
2022/06/25 14:54:33;;;;;;;;;2.00;2.00;;;;;;;;4966303;28;45455;-66
2022/06/25 14:56:58;;;;;;;;;1.00;1.00;;;;;;;;4964347;28;47509;-67